sensor_id;sensor_type;location;lat;lon;timestamp;pressure;altitude;pressure_sealevel;temperature;humidity
67099;BME280;54288;53.046;5.668;2022-08-30T00:00:36;102486.34;;;15.34;87.72
67099;BME280;54288;53.046;5.668;2022-08-30T00:03:21;102489.84;;;15.35;87.61
67099;BME280;54288;53.046;5.668;2022-08-30T00:05:48;102496.81;;;15.40;87.82
67099;BME280;54288;53.046;5.668;2022-08-30T00:08:14;102499.44;;;15.40;88.14
67099;BME280;54288;53.046;5.668;2022-08-30T00:10:41;102489.88;;;15.33;88.03
67099;BME280;54288;53.046;5.668;2022-08-30T00:13:09;102473.34;;;15.16;88.31
67099;BME280;54288;53.046;5.668;2022-08-30T00:15:39;102465.44;;;15.15;88.49
67099;BME280;54288;53.046;5.668;2022-08-30T00:18:05;102465.50;;;15.12;88.90
67099;BME280;54288;53.046;5.668;2022-08-30T00:20:33;102487.28;;;15.26;88.63
67099;BME280;54288;53.046;5.668;2022-08-30T00:23:00;102479.44;;;15.23;88.21
67099;BME280;54288;53.046;5.668;2022-08-30T00:25:25;102491.66;;;15.30;88.63
67099;BME280;54288;53.046;5.668;2022-08-30T00:27:52;102472.34;;;15.25;88.52
67099;BME280;54288;53.046;5.668;2022-08-30T00:30:18;102498.50;;;15.44;88.54
67099;BME280;54288;53.046;5.668;2022-08-30T00:35:44;102494.06;;;15.48;88.25
67099;BME280;54288;53.046;5.668;2022-08-30T00:38:12;102491.41;;;15.48;88.46
67099;BME280;54288;53.046;5.668;2022-08-30T00:40:40;102488.84;;;15.45;88.82
67099;BME280;54288;53.046;5.668;2022-08-30T00:43:13;102487.94;;;15.44;89.07
67099;BME280;54288;53.046;5.668;2022-08-30T00:45:39;102491.53;;;15.40;88.67
67099;BME280;54288;53.046;5.668;2022-08-30T00:48:05;102492.44;;;15.38;88.93
67099;BME280;54288;53.046;5.668;2022-08-30T00:50:37;102491.59;;;15.34;88.92
67099;BME280;54288;53.046;5.668;2022-08-30T00:53:08;102481.94;;;15.35;88.32
67099;BME280;54288;53.046;5.668;2022-08-30T00:55:35;102492.41;;;15.39;89.06
67099;BME280;54288;53.046;5.668;2022-08-30T00:58:04;102491.59;;;15.36;89.10
67099;BME280;54288;53.046;5.668;2022-08-30T01:00:31;102486.38;;;15.33;89.05
67099;BME280;54288;53.046;5.668;2022-08-30T01:02:57;102494.28;;;15.33;88.76
67099;BME280;54288;53.046;5.668;2022-08-30T01:05:23;102489.00;;;15.30;89.15
67099;BME280;54288;53.046;5.668;2022-08-30T01:07:49;102482.97;;;15.22;88.51
67099;BME280;54288;53.046;5.668;2022-08-30T01:10:15;102489.19;;;15.16;88.81
67099;BME280;54288;53.046;5.668;2022-08-30T01:12:44;102490.19;;;15.08;89.15
67099;BME280;54288;53.046;5.668;2022-08-30T01:15:11;102497.19;;;15.09;88.90
67099;BME280;54288;53.046;5.668;2022-08-30T01:17:40;102503.38;;;15.06;88.52
67099;BME280;54288;53.046;5.668;2022-08-30T01:20:11;102488.53;;;14.99;88.47
67099;BME280;54288;53.046;5.668;2022-08-30T01:25:19;102483.47;;;14.81;89.14
67099;BME280;54288;53.046;5.668;2022-08-30T01:27:51;102493.16;;;14.81;89.28
67099;BME280;54288;53.046;5.668;2022-08-30T01:30:17;102491.31;;;14.86;89.66
67099;BME280;54288;53.046;5.668;2022-08-30T01:32:46;102494.13;;;14.72;89.82
67099;BME280;54288;53.046;5.668;2022-08-30T01:35:15;102502.84;;;14.79;90.13
67099;BME280;54288;53.046;5.668;2022-08-30T01:37:43;102496.66;;;14.83;90.18
67099;BME280;54288;53.046;5.668;2022-08-30T01:40:12;102492.22;;;14.85;89.85
67099;BME280;54288;53.046;5.668;2022-08-30T01:42:39;102496.59;;;14.86;89.88
67099;BME280;54288;53.046;5.668;2022-08-30T01:45:07;102492.22;;;14.85;89.79
67099;BME280;54288;53.046;5.668;2022-08-30T01:47:33;102505.41;;;14.88;89.78
67099;BME280;54288;53.046;5.668;2022-08-30T01:49:59;102501.88;;;14.86;90.13
67099;BME280;54288;53.046;5.668;2022-08-30T01:52:26;102509.84;;;14.84;90.25
67099;BME280;54288;53.046;5.668;2022-08-30T01:54:52;102505.53;;;14.74;90.34
67099;BME280;54288;53.046;5.668;2022-08-30T01:57:20;102502.00;;;14.77;90.28
67099;BME280;54288;53.046;5.668;2022-08-30T01:59:47;102508.22;;;14.71;90.28
67099;BME280;54288;53.046;5.668;2022-08-30T02:02:26;102494.31;;;14.59;89.98
67099;BME280;54288;53.046;5.668;2022-08-30T02:04:54;102503.94;;;14.60;89.74
67099;BME280;54288;53.046;5.668;2022-08-30T02:07:22;102506.72;;;14.48;90.11
67099;BME280;54288;53.046;5.668;2022-08-30T02:09:49;102511.03;;;14.52;89.82
67099;BME280;54288;53.046;5.668;2022-08-30T02:12:16;102513.72;;;14.49;89.31
67099;BME280;54288;53.046;5.668;2022-08-30T02:14:42;102518.09;;;14.50;90.26
67099;BME280;54288;53.046;5.668;2022-08-30T02:17:11;102517.28;;;14.43;90.51
67099;BME280;54288;53.046;5.668;2022-08-30T02:19:38;102514.56;;;14.51;90.01
67099;BME280;54288;53.046;5.668;2022-08-30T02:22:04;102521.59;;;14.52;90.85
67099;BME280;54288;53.046;5.668;2022-08-30T02:24:30;102516.31;;;14.55;90.76
67099;BME280;54288;53.046;5.668;2022-08-30T02:26:56;102516.25;;;14.61;90.48
67099;BME280;54288;53.046;5.668;2022-08-30T02:29:23;102497.84;;;14.55;90.45
67099;BME280;54288;53.046;5.668;2022-08-30T02:31:50;102509.19;;;14.63;90.22
67099;BME280;54288;53.046;5.668;2022-08-30T02:34:16;102519.72;;;14.66;90.44
67099;BME280;54288;53.046;5.668;2022-08-30T02:36:43;102507.44;;;14.62;89.93
67099;BME280;54288;53.046;5.668;2022-08-30T02:39:10;102515.34;;;14.62;90.33
67099;BME280;54288;53.046;5.668;2022-08-30T02:41:36;102521.47;;;14.65;91.00
67099;BME280;54288;53.046;5.668;2022-08-30T02:44:04;102517.03;;;14.69;90.53
67099;BME280;54288;53.046;5.668;2022-08-30T02:46:30;102518.75;;;14.73;90.46
67099;BME280;54288;53.046;5.668;2022-08-30T02:48:55;102511.66;;;14.76;90.39
67099;BME280;54288;53.046;5.668;2022-08-30T02:51:21;102511.59;;;14.81;90.31
67099;BME280;54288;53.046;5.668;2022-08-30T02:53:47;102515.16;;;14.78;90.02
67099;BME280;54288;53.046;5.668;2022-08-30T02:56:13;102513.38;;;14.82;90.46
67099;BME280;54288;53.046;5.668;2022-08-30T02:58:40;102515.91;;;14.91;90.60
67099;BME280;54288;53.046;5.668;2022-08-30T03:01:08;102507.09;;;14.92;90.42
67099;BME280;54288;53.046;5.668;2022-08-30T03:03:34;102507.91;;;14.97;89.87
67099;BME280;54288;53.046;5.668;2022-08-30T03:06:01;102500.06;;;14.91;90.16
67099;BME280;54288;53.046;5.668;2022-08-30T03:08:28;102512.28;;;14.99;89.49
67099;BME280;54288;53.046;5.668;2022-08-30T03:10:54;102506.09;;;15.00;90.26
67099;BME280;54288;53.046;5.668;2022-08-30T03:13:22;102495.59;;;14.96;90.14
67099;BME280;54288;53.046;5.668;2022-08-30T03:15:48;102504.34;;;15.01;89.57
67099;BME280;54288;53.046;5.668;2022-08-30T03:18:19;102506.16;;;14.99;89.45
67099;BME280;54288;53.046;5.668;2022-08-30T03:20:45;102503.44;;;15.02;90.09
67099;BME280;54288;53.046;5.668;2022-08-30T03:23:12;102498.19;;;15.02;89.44
67099;BME280;54288;53.046;5.668;2022-08-30T03:25:38;102501.72;;;14.98;89.43
67099;BME280;54288;53.046;5.668;2022-08-30T03:28:05;102504.44;;;14.92;89.88
67099;BME280;54288;53.046;5.668;2022-08-30T03:30:31;102507.97;;;14.94;89.91
67099;BME280;54288;53.046;5.668;2022-08-30T03:32:58;102509.72;;;14.93;90.09
67099;BME280;54288;53.046;5.668;2022-08-30T03:35:24;102515.91;;;14.91;89.82
67099;BME280;54288;53.046;5.668;2022-08-30T03:37:49;102502.84;;;14.80;89.78
67099;BME280;54288;53.046;5.668;2022-08-30T03:40:18;102510.75;;;14.79;90.33
67099;BME280;54288;53.046;5.668;2022-08-30T03:42:46;102500.28;;;14.73;90.56
67099;BME280;54288;53.046;5.668;2022-08-30T03:45:14;102506.41;;;14.76;90.06
67099;BME280;54288;53.046;5.668;2022-08-30T03:47:41;102497.72;;;14.67;90.32
67099;BME280;54288;53.046;5.668;2022-08-30T03:50:08;102496.00;;;14.63;90.14
67099;BME280;54288;53.046;5.668;2022-08-30T03:52:34;102503.91;;;14.63;90.09
67099;BME280;54288;53.046;5.668;2022-08-30T03:55:00;102496.94;;;14.56;90.17
67099;BME280;54288;53.046;5.668;2022-08-30T03:57:27;102502.16;;;14.62;90.12
67099;BME280;54288;53.046;5.668;2022-08-30T03:59:52;102507.44;;;14.62;89.12
67099;BME280;54288;53.046;5.668;2022-08-30T04:02:18;102510.97;;;14.58;90.68
67099;BME280;54288;53.046;5.668;2022-08-30T04:04:44;102498.81;;;14.46;90.18
67099;BME280;54288;53.046;5.668;2022-08-30T04:07:10;102501.47;;;14.45;90.28
67099;BME280;54288;53.046;5.668;2022-08-30T04:09:36;102495.47;;;14.28;90.96
67099;BME280;54288;53.046;5.668;2022-08-30T04:12:02;102499.84;;;14.30;90.63
67099;BME280;54288;53.046;5.668;2022-08-30T04:14:28;102512.97;;;14.35;89.54
67099;BME280;54288;53.046;5.668;2022-08-30T04:16:53;102502.56;;;14.18;90.07
67099;BME280;54288;53.046;5.668;2022-08-30T04:19:19;102520.91;;;14.33;90.44
67099;BME280;54288;53.046;5.668;2022-08-30T04:21:45;102507.88;;;14.20;90.14
67099;BME280;54288;53.046;5.668;2022-08-30T04:24:11;102519.19;;;14.28;91.33
67099;BME280;54288;53.046;5.668;2022-08-30T04:26:37;102517.41;;;14.30;90.83
67099;BME280;54288;53.046;5.668;2022-08-30T04:29:03;102503.44;;;14.20;90.39
67099;BME280;54288;53.046;5.668;2022-08-30T04:31:29;102504.34;;;14.15;90.62
67099;BME280;54288;53.046;5.668;2022-08-30T04:33:55;102515.78;;;14.14;90.49
67099;BME280;54288;53.046;5.668;2022-08-30T04:36:21;102500.94;;;14.01;90.59
67099;BME280;54288;53.046;5.668;2022-08-30T04:38:47;102508.84;;;14.02;90.91
67099;BME280;54288;53.046;5.668;2022-08-30T04:41:18;102514.94;;;14.09;91.14
67099;BME280;54288;53.046;5.668;2022-08-30T04:43:45;102530.75;;;14.07;90.34
67099;BME280;54288;53.046;5.668;2022-08-30T04:46:13;102515.00;;;14.00;91.15
67099;BME280;54288;53.046;5.668;2022-08-30T04:48:39;102522.94;;;13.97;91.27
67099;BME280;54288;53.046;5.668;2022-08-30T04:51:08;102509.78;;;13.92;90.93
67099;BME280;54288;53.046;5.668;2022-08-30T04:53:35;102525.53;;;14.03;90.74
67099;BME280;54288;53.046;5.668;2022-08-30T04:56:07;102515.94;;;13.91;91.86
67099;BME280;54288;53.046;5.668;2022-08-30T04:58:33;102532.56;;;14.01;91.59
67099;BME280;54288;53.046;5.668;2022-08-30T05:00:58;102534.34;;;13.99;91.77
67099;BME280;54288;53.046;5.668;2022-08-30T05:03:24;102516.00;;;13.87;92.11
67099;BME280;54288;53.046;5.668;2022-08-30T05:05:50;102544.00;;;13.98;91.82
67099;BME280;54288;53.046;5.668;2022-08-30T05:08:19;102543.94;;;14.04;92.16
67099;BME280;54288;53.046;5.668;2022-08-30T05:10:48;102550.13;;;14.02;92.01
67099;BME280;54288;53.046;5.668;2022-08-30T05:13:16;102551.00;;;14.05;92.58
67099;BME280;54288;53.046;5.668;2022-08-30T05:15:43;102554.47;;;14.07;92.37
67099;BME280;54288;53.046;5.668;2022-08-30T05:18:10;102550.94;;;14.08;92.13
67099;BME280;54288;53.046;5.668;2022-08-30T05:20:37;102550.94;;;14.08;92.42
67099;BME280;54288;53.046;5.668;2022-08-30T05:23:03;102536.94;;;14.05;92.29
67099;BME280;54288;53.046;5.668;2022-08-30T05:25:32;102550.91;;;14.13;92.11
67099;BME280;54288;53.046;5.668;2022-08-30T05:27:59;102543.03;;;14.07;91.94
67099;BME280;54288;53.046;5.668;2022-08-30T05:30:26;102553.53;;;14.14;92.00
67099;BME280;54288;53.046;5.668;2022-08-30T05:32:53;102541.31;;;14.06;91.99
67099;BME280;54288;53.046;5.668;2022-08-30T05:35:19;102550.94;;;14.07;92.08
67099;BME280;54288;53.046;5.668;2022-08-30T05:37:45;102566.72;;;14.13;91.92
67099;BME280;54288;53.046;5.668;2022-08-30T05:40:12;102557.94;;;14.14;92.05
67099;BME280;54288;53.046;5.668;2022-08-30T05:42:43;102557.03;;;14.21;91.66
67099;BME280;54288;53.046;5.668;2022-08-30T05:45:09;102548.25;;;14.22;91.66
67099;BME280;54288;53.046;5.668;2022-08-30T05:47:36;102557.81;;;14.32;91.56
67099;BME280;54288;53.046;5.668;2022-08-30T05:50:04;102542.06;;;14.26;91.19
67099;BME280;54288;53.046;5.668;2022-08-30T05:52:35;102553.34;;;14.43;90.93
67099;BME280;54288;53.046;5.668;2022-08-30T05:55:02;102548.84;;;14.54;90.88
67099;BME280;54288;53.046;5.668;2022-08-30T05:57:31;102553.03;;;14.73;89.91
67099;BME280;54288;53.046;5.668;2022-08-30T06:00:00;102560.72;;;14.92;89.34
67099;BME280;54288;53.046;5.668;2022-08-30T06:02:25;102556.81;;;15.26;87.76
67099;BME280;54288;53.046;5.668;2022-08-30T06:04:51;102558.34;;;15.44;86.79
67099;BME280;54288;53.046;5.668;2022-08-30T06:07:17;102556.22;;;15.73;85.67
67099;BME280;54288;53.046;5.668;2022-08-30T06:09:42;102549.94;;;15.80;84.46
67099;BME280;54288;53.046;5.668;2022-08-30T06:12:08;102558.22;;;16.12;83.92
67099;BME280;54288;53.046;5.668;2022-08-30T06:14:34;102554.34;;;16.34;82.77
67099;BME280;54288;53.046;5.668;2022-08-30T06:17:00;102570.56;;;16.66;81.77
67099;BME280;54288;53.046;5.668;2022-08-30T06:19:25;102555.41;;;16.74;80.63
67099;BME280;54288;53.046;5.668;2022-08-30T06:21:51;102562.34;;;16.81;79.98
67099;BME280;54288;53.046;5.668;2022-08-30T06:24:17;102559.25;;;17.03;80.09
67099;BME280;54288;53.046;5.668;2022-08-30T06:26:45;102563.78;;;17.41;78.82
67099;BME280;54288;53.046;5.668;2022-08-30T06:29:17;102561.63;;;17.59;77.88
67099;BME280;54288;53.046;5.668;2022-08-30T06:31:43;102567.31;;;17.81;77.00
67099;BME280;54288;53.046;5.668;2022-08-30T06:34:09;102577.34;;;18.05;76.07
67099;BME280;54288;53.046;5.668;2022-08-30T06:36:35;102565.84;;;18.06;76.24
67099;BME280;54288;53.046;5.668;2022-08-30T06:39:02;102569.00;;;18.21;75.46
67099;BME280;54288;53.046;5.668;2022-08-30T06:41:31;102574.06;;;18.32;74.66
67099;BME280;54288;53.046;5.668;2022-08-30T06:44:00;102570.78;;;18.56;74.19
67099;BME280;54288;53.046;5.668;2022-08-30T06:46:30;102552.56;;;18.76;73.83
67099;BME280;54288;53.046;5.668;2022-08-30T06:48:57;102556.63;;;18.89;71.74
67099;BME280;54288;53.046;5.668;2022-08-30T06:51:29;102572.34;;;18.96;71.94
67099;BME280;54288;53.046;5.668;2022-08-30T06:53:56;102576.34;;;19.11;71.01
67099;BME280;54288;53.046;5.668;2022-08-30T06:56:23;102573.63;;;19.14;70.14
67099;BME280;54288;53.046;5.668;2022-08-30T06:58:49;102560.16;;;19.20;69.80
67099;BME280;54288;53.046;5.668;2022-08-30T07:01:21;102575.44;;;19.44;69.60
67099;BME280;54288;53.046;5.668;2022-08-30T07:03:48;102584.34;;;19.41;68.44
67099;BME280;54288;53.046;5.668;2022-08-30T07:06:15;102579.50;;;19.55;68.22
67099;BME280;54288;53.046;5.668;2022-08-30T07:08:41;102581.53;;;19.75;67.21
67099;BME280;54288;53.046;5.668;2022-08-30T07:11:07;102576.72;;;19.60;66.05
67099;BME280;54288;53.046;5.668;2022-08-30T07:13:34;102579.13;;;19.67;66.93
67099;BME280;54288;53.046;5.668;2022-08-30T07:16:00;102574.16;;;19.84;66.41
67099;BME280;54288;53.046;5.668;2022-08-30T07:18:26;102568.47;;;19.96;66.03
67099;BME280;54288;53.046;5.668;2022-08-30T07:21:13;102574.81;;;20.20;65.16
67099;BME280;54288;53.046;5.668;2022-08-30T07:23:43;102571.22;;;20.21;64.80
67099;BME280;54288;53.046;5.668;2022-08-30T07:26:13;102576.50;;;20.22;62.96
67099;BME280;54288;53.046;5.668;2022-08-30T07:28:41;102570.63;;;20.39;62.31
67099;BME280;54288;53.046;5.668;2022-08-30T07:31:09;102581.50;;;20.57;63.72
67099;BME280;54288;53.046;5.668;2022-08-30T07:33:36;102582.19;;;20.64;63.14
67099;BME280;54288;53.046;5.668;2022-08-30T07:36:03;102569.78;;;20.63;61.29
67099;BME280;54288;53.046;5.668;2022-08-30T07:38:30;102590.53;;;20.78;61.51
67099;BME280;54288;53.046;5.668;2022-08-30T07:40:56;102589.88;;;20.97;61.09
67099;BME280;54288;53.046;5.668;2022-08-30T07:43:26;102583.13;;;21.12;60.44
67099;BME280;54288;53.046;5.668;2022-08-30T07:45:53;102574.50;;;21.30;59.26
67099;BME280;54288;53.046;5.668;2022-08-30T07:48:21;102584.13;;;21.32;58.39
67099;BME280;54288;53.046;5.668;2022-08-30T07:50:46;102575.03;;;21.15;58.55
67099;BME280;54288;53.046;5.668;2022-08-30T07:53:12;102592.44;;;21.48;58.52
67099;BME280;54288;53.046;5.668;2022-08-30T07:55:39;102583.97;;;21.60;57.05
67099;BME280;54288;53.046;5.668;2022-08-30T07:58:05;102591.03;;;21.61;56.26
67099;BME280;54288;53.046;5.668;2022-08-30T08:00:31;102584.84;;;21.60;57.11
67099;BME280;54288;53.046;5.668;2022-08-30T08:03:06;102586.47;;;21.64;56.42
67099;BME280;54288;53.046;5.668;2022-08-30T08:05:43;102592.50;;;21.46;55.68
67099;BME280;54288;53.046;5.668;2022-08-30T08:08:10;102584.59;;;21.43;57.02
67099;BME280;54288;53.046;5.668;2022-08-30T08:10:38;102595.00;;;21.74;56.07
67099;BME280;54288;53.046;5.668;2022-08-30T08:13:04;102567.75;;;21.66;55.99
67099;BME280;54288;53.046;5.668;2022-08-30T08:15:31;102590.56;;;21.96;53.47
67099;BME280;54288;53.046;5.668;2022-08-30T08:17:57;102567.00;;;21.85;53.32
67099;BME280;54288;53.046;5.668;2022-08-30T08:20:23;102572.78;;;21.96;53.31
67099;BME280;54288;53.046;5.668;2022-08-30T08:22:50;102598.31;;;22.02;52.88
67099;BME280;54288;53.046;5.668;2022-08-30T08:25:16;102603.13;;;22.15;52.04
67099;BME280;54288;53.046;5.668;2022-08-30T08:27:42;102593.69;;;22.07;52.20
67099;BME280;54288;53.046;5.668;2022-08-30T08:30:19;102597.34;;;22.04;52.01
67099;BME280;54288;53.046;5.668;2022-08-30T08:32:46;102582.66;;;22.16;51.40
67099;BME280;54288;53.046;5.668;2022-08-30T08:35:13;102595.91;;;22.39;52.11
67099;BME280;54288;53.046;5.668;2022-08-30T08:37:39;102577.91;;;22.22;50.93
67099;BME280;54288;53.046;5.668;2022-08-30T08:40:06;102595.28;;;22.32;50.85
67099;BME280;54288;53.046;5.668;2022-08-30T08:42:59;102595.09;;;22.37;51.10
67099;BME280;54288;53.046;5.668;2022-08-30T08:45:41;102591.03;;;22.70;50.54
67099;BME280;54288;53.046;5.668;2022-08-30T08:48:31;102592.97;;;22.66;50.54
67099;BME280;54288;53.046;5.668;2022-08-30T08:50:58;102577.28;;;22.79;49.98
67099;BME280;54288;53.046;5.668;2022-08-30T08:53:49;102599.19;;;22.67;49.54
67099;BME280;54288;53.046;5.668;2022-08-30T08:56:19;102597.97;;;22.94;49.87
67099;BME280;54288;53.046;5.668;2022-08-30T08:58:53;102584.84;;;22.89;50.08
67099;BME280;54288;53.046;5.668;2022-08-30T09:01:26;102598.59;;;23.00;48.78
67099;BME280;54288;53.046;5.668;2022-08-30T09:03:52;102580.41;;;23.28;48.99
67099;BME280;54288;53.046;5.668;2022-08-30T09:06:35;102593.94;;;23.44;47.62
67099;BME280;54288;53.046;5.668;2022-08-30T09:09:03;102593.63;;;23.70;47.89
67099;BME280;54288;53.046;5.668;2022-08-30T09:11:31;102596.88;;;23.95;46.40
67099;BME280;54288;53.046;5.668;2022-08-30T09:13:58;102587.41;;;24.06;47.34
67099;BME280;54288;53.046;5.668;2022-08-30T09:16:56;102594.28;;;24.29;46.67
67099;BME280;54288;53.046;5.668;2022-08-30T09:22:22;102595.13;;;22.98;48.09
67099;BME280;54288;53.046;5.668;2022-08-30T09:24:54;102586.91;;;23.03;49.16
67099;BME280;54288;53.046;5.668;2022-08-30T09:27:27;102590.56;;;23.40;47.61
67099;BME280;54288;53.046;5.668;2022-08-30T09:29:58;102584.44;;;22.78;49.34
67099;BME280;54288;53.046;5.668;2022-08-30T09:32:36;102594.97;;;23.60;48.24
67099;BME280;54288;53.046;5.668;2022-08-30T09:35:10;102587.38;;;23.51;45.56
67099;BME280;54288;53.046;5.668;2022-08-30T09:37:53;102591.53;;;23.58;45.32
67099;BME280;54288;53.046;5.668;2022-08-30T09:40:31;102576.16;;;22.84;47.26
67099;BME280;54288;53.046;5.668;2022-08-30T09:43:02;102575.41;;;23.21;47.09
67099;BME280;54288;53.046;5.668;2022-08-30T09:45:41;102600.19;;;22.64;48.10
67099;BME280;54288;53.046;5.668;2022-08-30T09:53:33;102602.91;;;22.20;48.04
67099;BME280;54288;53.046;5.668;2022-08-30T09:59:07;102599.88;;;22.29;50.07
67099;BME280;54288;53.046;5.668;2022-08-30T10:01:45;102585.72;;;22.90;49.21
67099;BME280;54288;53.046;5.668;2022-08-30T10:07:02;102588.97;;;22.76;48.28
67099;BME280;54288;53.046;5.668;2022-08-30T10:09:34;102601.25;;;22.60;48.67
67099;BME280;54288;53.046;5.668;2022-08-30T10:12:14;102601.09;;;22.43;49.14
67099;BME280;54288;53.046;5.668;2022-08-30T10:15:34;102605.16;;;22.09;49.91
67099;BME280;54288;53.046;5.668;2022-08-30T10:17:52;102584.25;;;21.98;50.36
67099;BME280;54288;53.046;5.668;2022-08-30T10:20:22;102596.03;;;22.14;50.88
67099;BME280;54288;53.046;5.668;2022-08-30T10:23:14;102596.38;;;22.70;49.26
67099;BME280;54288;53.046;5.668;2022-08-30T10:31:17;102595.59;;;22.25;48.63
67099;BME280;54288;53.046;5.668;2022-08-30T10:33:51;102590.91;;;22.73;48.31
67099;BME280;54288;53.046;5.668;2022-08-30T10:36:31;102599.47;;;22.81;48.12
67099;BME280;54288;53.046;5.668;2022-08-30T10:39:02;102586.25;;;22.78;49.70
67099;BME280;54288;53.046;5.668;2022-08-30T10:41:40;102587.31;;;22.74;46.95
67099;BME280;54288;53.046;5.668;2022-08-30T10:44:21;102588.69;;;23.02;45.50
67099;BME280;54288;53.046;5.668;2022-08-30T10:47:27;102590.25;;;22.88;44.44
67099;BME280;54288;53.046;5.668;2022-08-30T10:50:17;102587.50;;;23.09;44.26
67099;BME280;54288;53.046;5.668;2022-08-30T10:57:49;102582.56;;;23.77;42.49
67099;BME280;54288;53.046;5.668;2022-08-30T11:00:29;102577.94;;;23.81;43.63
67099;BME280;54288;53.046;5.668;2022-08-30T11:06:13;102567.94;;;23.66;43.43
67099;BME280;54288;53.046;5.668;2022-08-30T11:09:10;102549.34;;;23.63;41.32
67099;BME280;54288;53.046;5.668;2022-08-30T11:14:25;102549.41;;;23.80;42.88
67099;BME280;54288;53.046;5.668;2022-08-30T11:16:54;102556.00;;;23.73;42.17
67099;BME280;54288;53.046;5.668;2022-08-30T11:19:25;102558.19;;;23.65;41.65
67099;BME280;54288;53.046;5.668;2022-08-30T11:22:12;102554.19;;;23.73;42.44
67099;BME280;54288;53.046;5.668;2022-08-30T11:25:11;102547.13;;;23.72;43.26
67099;BME280;54288;53.046;5.668;2022-08-30T11:35:46;102552.97;;;23.62;42.56
67099;BME280;54288;53.046;5.668;2022-08-30T11:46:39;102550.34;;;23.23;42.07
67099;BME280;54288;53.046;5.668;2022-08-30T12:00:10;102534.41;;;23.59;40.87
67099;BME280;54288;53.046;5.668;2022-08-30T12:02:55;102535.19;;;23.61;40.86
67099;BME280;54288;53.046;5.668;2022-08-30T12:10:52;102535.28;;;23.41;41.29
67099;BME280;54288;53.046;5.668;2022-08-30T12:18:46;102549.34;;;23.63;37.65
67099;BME280;54288;53.046;5.668;2022-08-30T12:23:59;102545.38;;;23.53;37.60
67099;BME280;54288;53.046;5.668;2022-08-30T12:26:31;102549.56;;;23.77;39.06
67099;BME280;54288;53.046;5.668;2022-08-30T12:29:28;102535.69;;;23.69;38.04
67099;BME280;54288;53.046;5.668;2022-08-30T12:32:01;102537.28;;;23.73;39.77
67099;BME280;54288;53.046;5.668;2022-08-30T12:36:56;102536.78;;;23.65;38.31
67099;BME280;54288;53.046;5.668;2022-08-30T12:39:34;102513.94;;;23.58;39.24
67099;BME280;54288;53.046;5.668;2022-08-30T12:42:19;102526.22;;;23.62;40.09
67099;BME280;54288;53.046;5.668;2022-08-30T12:44:49;102520.84;;;23.80;40.77
67099;BME280;54288;53.046;5.668;2022-08-30T12:47:21;102517.59;;;23.74;39.93
67099;BME280;54288;53.046;5.668;2022-08-30T12:49:52;102511.28;;;23.58;39.55
67099;BME280;54288;53.046;5.668;2022-08-30T12:52:25;102519.06;;;23.62;39.00
67099;BME280;54288;53.046;5.668;2022-08-30T12:55:16;102510.06;;;23.82;39.60
67099;BME280;54288;53.046;5.668;2022-08-30T13:00:33;102516.88;;;23.89;40.21
67099;BME280;54288;53.046;5.668;2022-08-30T13:03:25;102500.38;;;23.79;41.13
67099;BME280;54288;53.046;5.668;2022-08-30T13:05:54;102503.53;;;23.87;40.24
67099;BME280;54288;53.046;5.668;2022-08-30T13:11:03;102503.84;;;24.00;42.19
67099;BME280;54288;53.046;5.668;2022-08-30T13:13:33;102501.28;;;24.32;42.60
67099;BME280;54288;53.046;5.668;2022-08-30T13:18:44;102509.47;;;24.46;42.25
67099;BME280;54288;53.046;5.668;2022-08-30T13:21:23;102511.03;;;24.16;42.52
67099;BME280;54288;53.046;5.668;2022-08-30T13:23:54;102505.56;;;24.01;43.01
67099;BME280;54288;53.046;5.668;2022-08-30T13:26:19;102490.22;;;24.04;43.67
67099;BME280;54288;53.046;5.668;2022-08-30T13:28:48;102494.03;;;24.00;42.85
67099;BME280;54288;53.046;5.668;2022-08-30T13:31:15;102503.44;;;23.53;44.20
67099;BME280;54288;53.046;5.668;2022-08-30T13:33:41;102488.47;;;23.68;44.42
67099;BME280;54288;53.046;5.668;2022-08-30T13:36:10;102490.06;;;23.72;43.06
67099;BME280;54288;53.046;5.668;2022-08-30T13:38:36;102500.53;;;23.76;42.54
67099;BME280;54288;53.046;5.668;2022-08-30T13:41:01;102478.72;;;23.67;43.03
67099;BME280;54288;53.046;5.668;2022-08-30T13:43:27;102486.97;;;23.62;43.46
67099;BME280;54288;53.046;5.668;2022-08-30T13:45:53;102492.91;;;23.69;43.30
67099;BME280;54288;53.046;5.668;2022-08-30T13:48:18;102493.03;;;23.66;43.29
67099;BME280;54288;53.046;5.668;2022-08-30T13:50:44;102485.84;;;23.31;45.31
67099;BME280;54288;53.046;5.668;2022-08-30T13:53:10;102481.63;;;23.44;44.51
67099;BME280;54288;53.046;5.668;2022-08-30T13:55:37;102485.88;;;23.66;44.22
67099;BME280;54288;53.046;5.668;2022-08-30T13:58:04;102477.41;;;23.57;43.87
67099;BME280;54288;53.046;5.668;2022-08-30T14:00:30;102469.72;;;23.68;44.25
67099;BME280;54288;53.046;5.668;2022-08-30T14:02:56;102477.88;;;23.48;44.18
67099;BME280;54288;53.046;5.668;2022-08-30T14:05:25;102486.72;;;23.67;44.51
67099;BME280;54288;53.046;5.668;2022-08-30T14:07:53;102475.91;;;23.51;43.93
67099;BME280;54288;53.046;5.668;2022-08-30T14:10:26;102476.88;;;23.32;44.18
67099;BME280;54288;53.046;5.668;2022-08-30T14:12:52;102481.63;;;23.44;44.79
67099;BME280;54288;53.046;5.668;2022-08-30T14:15:18;102482.59;;;23.04;45.69
67099;BME280;54288;53.046;5.668;2022-08-30T14:17:43;102485.19;;;23.06;45.84
67099;BME280;54288;53.046;5.668;2022-08-30T14:20:10;102468.06;;;23.10;45.85
67099;BME280;54288;53.046;5.668;2022-08-30T14:22:36;102469.44;;;23.00;46.92
67099;BME280;54288;53.046;5.668;2022-08-30T14:25:03;102483.97;;;22.94;46.14
67099;BME280;54288;53.046;5.668;2022-08-30T14:27:29;102475.72;;;22.99;46.10
67099;BME280;54288;53.046;5.668;2022-08-30T14:29:56;102484.09;;;22.91;46.65